Time;durP1;ratioP1;P1;durP2;ratioP2;P2;SDS_P1;SDS_P2;PMS_P1;PMS_P2;Temp;Humidity;BMP_temperature;BMP_pressure;BME280_temperature;BME280_humidity;BME280_pressure;Samples;Min_cycle;Max_cycle;Signal;HPM_P1;HPM_P2
2024/03/04 00:00:43;;;;;;;24.98;18.02;;;9.50;99.90;;;;;;5038735;28;20045;-35
2024/03/04 00:03:12;;;;;;;33.85;23.02;;;9.50;99.90;;;;;;5037823;28;20016;-34
2024/03/04 00:05:39;;;;;;;31.70;22.30;;;9.50;99.90;;;;;;5031023;28;20628;-34
2024/03/04 00:08:04;;;;;;;37.63;26.45;;;9.50;99.90;;;;;;5026172;28;20057;-33
2024/03/04 00:10:30;;;;;;;29.40;23.00;;;9.60;99.90;;;;;;5034886;28;20234;-35
2024/03/04 00:12:57;;;;;;;33.78;24.88;;;9.60;99.90;;;;;;5038386;28;20045;-38
2024/03/04 00:15:23;;;;;;;34.35;25.15;;;9.60;99.90;;;;;;5039312;28;20037;-36
2024/03/04 00:17:51;;;;;;;38.38;26.20;;;9.60;99.90;;;;;;5040027;28;20033;-35
2024/03/04 00:20:21;;;;;;;35.15;25.80;;;9.60;99.90;;;;;;5040053;28;20049;-31
2024/03/04 00:22:47;;;;;;;38.42;25.95;;;9.60;99.90;;;;;;5038236;28;20766;-33
2024/03/04 00:25:16;;;;;;;28.95;21.00;;;9.50;99.90;;;;;;5040764;28;20040;-34
2024/03/04 00:27:47;;;;;;;33.85;24.80;;;9.60;99.90;;;;;;5040566;28;20047;-36
2024/03/04 00:30:13;;;;;;;39.42;27.67;;;9.60;99.90;;;;;;5042079;28;20130;-31
2024/03/04 00:32:39;;;;;;;35.25;26.00;;;9.60;99.90;;;;;;5041379;28;20112;-33
2024/03/04 00:35:10;;;;;;;34.83;24.27;;;9.60;99.90;;;;;;5040820;28;20028;-32
2024/03/04 00:37:36;;;;;;;33.40;25.70;;;9.60;99.90;;;;;;5041621;28;20625;-33
2024/03/04 00:40:06;;;;;;;29.10;21.88;;;9.60;99.90;;;;;;5036134;28;20116;-36
2024/03/04 00:42:32;;;;;;;24.40;19.27;;;9.60;99.90;;;;;;5038769;28;20071;-36
2024/03/04 00:44:59;;;;;;;27.25;19.83;;;9.70;99.90;;;;;;5039522;28;20029;-34
2024/03/04 00:47:24;;;;;;;24.35;18.80;;;9.70;99.90;;;;;;5035962;28;20072;-35
2024/03/04 00:49:50;;;;;;;24.00;18.33;;;9.70;99.90;;;;;;5042265;28;20120;-36
2024/03/04 00:52:17;;;;;;;22.20;17.13;;;9.70;99.90;;;;;;5041736;28;20055;-34
2024/03/04 00:54:43;;;;;;;30.52;22.30;;;9.70;99.90;;;;;;5041660;28;20025;-31
2024/03/04 00:57:09;;;;;;;30.67;22.30;;;9.70;99.90;;;;;;5039779;28;20704;-35
2024/03/04 00:59:37;;;;;;;25.40;18.83;;;9.70;99.90;;;;;;5040984;28;20077;-34
2024/03/04 01:02:06;;;;;;;19.40;15.45;;;9.60;99.90;;;;;;5041738;28;20048;-33
2024/03/04 01:04:33;;;;;;;21.73;17.40;;;9.70;99.90;;;;;;5038447;28;20100;-34
2024/03/04 01:06:59;;;;;;;20.52;14.38;;;9.70;99.90;;;;;;5041875;28;20079;-35
2024/03/04 01:09:25;;;;;;;16.45;12.27;;;9.70;99.90;;;;;;5037857;28;20764;-35
2024/03/04 01:11:53;;;;;;;14.40;11.13;;;9.80;99.90;;;;;;5042433;28;20033;-37
2024/03/04 01:14:19;;;;;;;24.13;18.83;;;9.80;99.90;;;;;;5041643;28;20025;-32
2024/03/04 01:16:48;;;;;;;22.25;17.95;;;9.70;99.90;;;;;;5040676;28;20040;-39
2024/03/04 01:19:14;;;;;;;26.80;19.88;;;9.70;99.90;;;;;;5041017;28;20109;-37
2024/03/04 01:21:43;;;;;;;24.00;17.30;;;9.70;99.90;;;;;;5040569;28;20048;-39
2024/03/04 01:24:10;;;;;;;19.02;15.35;;;9.70;99.90;;;;;;5039814;28;20033;-38
2024/03/04 01:26:36;;;;;;;22.77;16.38;;;9.60;99.90;;;;;;5041281;28;20027;-34
2024/03/04 01:29:08;;;;;;;23.77;17.13;;;9.70;99.90;;;;;;5042485;28;20033;-34
2024/03/04 01:31:33;;;;;;;30.07;21.53;;;9.70;99.90;;;;;;5040566;28;20029;-32
2024/03/04 01:33:59;;;;;;;29.92;21.58;;;9.60;99.90;;;;;;5042063;28;20290;-36
2024/03/04 01:36:29;;;;;;;30.00;20.35;;;9.60;99.90;;;;;;5039789;28;20025;-38
2024/03/04 01:38:55;;;;;;;21.58;16.85;;;9.50;99.90;;;;;;5040230;28;20040;-35
2024/03/04 01:41:20;;;;;;;27.88;19.10;;;9.50;99.90;;;;;;5039981;28;20029;-33
2024/03/04 01:43:46;;;;;;;23.33;17.70;;;9.50;99.90;;;;;;5034953;28;20060;-35
2024/03/04 01:46:12;;;;;;;17.67;14.48;;;9.50;99.90;;;;;;5037479;28;20031;-34
2024/03/04 01:48:39;;;;;;;27.88;19.65;;;9.50;99.90;;;;;;5036682;28;20063;-35
2024/03/04 01:51:06;;;;;;;27.35;19.10;;;9.50;99.90;;;;;;5037395;28;20039;-34
2024/03/04 01:53:32;;;;;;;28.13;20.25;;;9.50;99.90;;;;;;5041354;28;20577;-32
2024/03/04 01:56:06;;;;;;;24.48;18.02;;;9.50;99.90;;;;;;5040642;28;20017;-34
2024/03/04 01:58:38;;;;;;;20.08;15.55;;;9.40;99.90;;;;;;5039661;28;20055;-36
2024/03/04 02:01:05;;;;;;;16.75;12.43;;;9.40;99.90;;;;;;5039476;28;20029;-33
2024/03/04 02:03:31;;;;;;;22.60;16.17;;;9.50;99.90;;;;;;5040137;28;20238;-37
2024/03/04 02:05:58;;;;;;;22.75;17.65;;;9.50;99.90;;;;;;5040021;28;20039;-38
2024/03/04 02:08:24;;;;;;;17.90;14.43;;;9.50;99.90;;;;;;5038008;28;20106;-35
2024/03/04 02:10:51;;;;;;;25.38;18.63;;;9.50;99.90;;;;;;5040125;28;20112;-36
2024/03/04 02:13:20;;;;;;;25.60;19.85;;;9.50;99.90;;;;;;5038648;28;20090;-33
2024/03/04 02:15:47;;;;;;;28.15;20.25;;;9.40;99.90;;;;;;5039076;28;20044;-36
2024/03/04 02:18:15;;;;;;;26.73;19.65;;;9.40;99.90;;;;;;5039727;28;20409;-35
2024/03/04 02:20:45;;;;;;;26.27;20.27;;;9.40;99.90;;;;;;5035755;28;20636;-35
2024/03/04 02:23:12;;;;;;;29.48;22.27;;;9.40;99.90;;;;;;5038584;28;20040;-36
2024/03/04 02:25:38;;;;;;;39.38;27.95;;;9.40;99.90;;;;;;5037601;28;20040;-36
2024/03/04 02:28:04;;;;;;;38.78;27.48;;;9.40;99.90;;;;;;5038309;28;20150;-32
2024/03/04 02:30:32;;;;;;;31.23;23.02;;;9.40;99.90;;;;;;5033379;28;20037;-36
2024/03/04 02:32:59;;;;;;;26.15;19.67;;;9.40;99.90;;;;;;5038203;28;20115;-33
2024/03/04 02:35:29;;;;;;;37.53;25.23;;;9.50;99.90;;;;;;5039321;28;20044;-39
2024/03/04 02:37:55;;;;;;;34.90;25.05;;;9.50;99.90;;;;;;5035223;28;20021;-32
2024/03/04 02:40:26;;;;;;;39.20;28.30;;;9.50;99.90;;;;;;5038386;28;20029;-34
2024/03/04 02:42:52;;;;;;;35.85;26.88;;;9.50;99.90;;;;;;5038572;28;20021;-32
2024/03/04 02:45:24;;;;;;;31.08;22.30;;;9.40;99.90;;;;;;5037476;28;20028;-38
2024/03/04 02:47:49;;;;;;;34.95;24.05;;;9.40;99.90;;;;;;5039118;28;20041;-36
2024/03/04 02:50:18;;;;;;;33.42;24.25;;;9.40;99.90;;;;;;5037780;28;20413;-35
2024/03/04 02:52:44;;;;;;;28.45;20.35;;;9.30;99.90;;;;;;5040532;28;20033;-34
2024/03/04 02:55:10;;;;;;;26.30;18.63;;;9.30;99.90;;;;;;5039015;28;20095;-33
2024/03/04 02:57:35;;;;;;;23.75;17.42;;;9.30;99.90;;;;;;5036864;28;20057;-35
2024/03/04 03:00:06;;;;;;;21.80;15.15;;;9.30;99.90;;;;;;5040041;28;20031;-30
2024/03/04 03:02:31;;;;;;;24.20;15.30;;;9.30;99.90;;;;;;5039633;28;20789;-32
2024/03/04 03:04:57;;;;;;;20.45;13.25;;;9.30;99.90;;;;;;5040406;28;20029;-34
2024/03/04 03:07:22;;;;;;;16.17;11.77;;;9.40;99.90;;;;;;5032731;28;20126;-35
2024/03/04 03:09:48;;;;;;;20.63;13.60;;;9.40;99.90;;;;;;5036022;28;20792;-35
2024/03/04 03:12:13;;;;;;;20.90;14.48;;;9.40;99.90;;;;;;5038513;28;20025;-33
2024/03/04 03:14:39;;;;;;;18.92;13.98;;;9.40;99.90;;;;;;5038728;28;20103;-34
2024/03/04 03:17:04;;;;;;;20.20;14.13;;;9.40;99.90;;;;;;5038672;28;20183;-33
2024/03/04 03:19:30;;;;;;;15.85;11.27;;;9.40;99.90;;;;;;5038812;28;20029;-33
2024/03/04 03:21:56;;;;;;;16.45;11.13;;;9.40;99.90;;;;;;5038772;28;20132;-32
2024/03/04 03:24:24;;;;;;;15.02;10.00;;;9.40;99.90;;;;;;5039076;28;20029;-31
2024/03/04 03:26:50;;;;;;;16.90;11.20;;;9.40;99.90;;;;;;5037992;28;20145;-35
2024/03/04 03:29:16;;;;;;;14.93;10.55;;;9.40;99.90;;;;;;5037694;28;20506;-32
2024/03/04 03:31:42;;;;;;;10.48;7.75;;;9.50;99.90;;;;;;5039487;28;20036;-35
2024/03/04 03:34:08;;;;;;;11.93;7.70;;;9.50;99.90;;;;;;5038508;28;20041;-30
2024/03/04 03:36:39;;;;;;;7.70;5.97;;;9.50;99.90;;;;;;5037903;28;20029;-36
2024/03/04 03:39:05;;;;;;;12.80;6.85;;;9.50;99.90;;;;;;5035174;28;20409;-32
2024/03/04 03:41:34;;;;;;;7.43;5.32;;;9.50;99.90;;;;;;5032335;28;20851;-32
2024/03/04 03:44:02;;;;;;;9.57;5.90;;;9.50;99.90;;;;;;5030435;28;20037;-33
2024/03/04 03:46:28;;;;;;;8.27;6.07;;;9.50;99.90;;;;;;5035889;28;20559;-34
2024/03/04 03:48:55;;;;;;;9.70;5.60;;;9.40;99.90;;;;;;5038215;28;20043;-37
2024/03/04 03:51:20;;;;;;;7.38;5.20;;;9.40;99.90;;;;;;5040337;28;20033;-37
2024/03/04 03:53:46;;;;;;;7.63;5.50;;;9.40;99.90;;;;;;5040727;28;20078;-35
2024/03/04 03:56:12;;;;;;;8.18;5.63;;;9.40;99.90;;;;;;5041421;28;20017;-35
2024/03/04 03:58:38;;;;;;;10.90;5.75;;;9.30;99.90;;;;;;5042128;28;20594;-36
2024/03/04 04:01:04;;;;;;;7.70;5.10;;;9.30;99.90;;;;;;5040305;28;20020;-36
2024/03/04 04:03:30;;;;;;;9.63;6.13;;;9.30;99.90;;;;;;5042408;28;20029;-38
2024/03/04 04:05:58;;;;;;;9.20;6.22;;;9.30;99.90;;;;;;5043025;28;20099;-38
2024/03/04 04:08:23;;;;;;;11.10;7.40;;;9.30;99.90;;;;;;5034942;28;20132;-36
2024/03/04 04:10:49;;;;;;;10.75;6.55;;;9.20;99.90;;;;;;5043567;28;20049;-35
2024/03/04 04:13:15;;;;;;;10.73;7.50;;;9.20;99.90;;;;;;5042398;28;20468;-31
2024/03/04 04:15:41;;;;;;;8.35;5.93;;;9.10;99.90;;;;;;5043198;28;20247;-34
2024/03/04 04:18:06;;;;;;;12.93;6.65;;;9.10;99.90;;;;;;5043087;28;20697;-33
2024/03/04 04:20:32;;;;;;;11.68;7.45;;;9.10;99.90;;;;;;5040615;28;20021;-35
2024/03/04 04:22:58;;;;;;;10.43;6.53;;;9.10;99.90;;;;;;5034368;28;20745;-35
2024/03/04 04:25:24;;;;;;;11.63;7.50;;;9.00;99.90;;;;;;5038766;28;20028;-36
2024/03/04 04:27:50;;;;;;;12.25;7.18;;;9.00;99.90;;;;;;5039763;28;20106;-36
2024/03/04 04:30:15;;;;;;;12.63;7.20;;;9.00;99.90;;;;;;5033174;28;20699;-35
2024/03/04 04:32:41;;;;;;;12.77;7.25;;;9.00;99.90;;;;;;5038073;28;20120;-30
2024/03/04 04:35:07;;;;;;;12.02;6.97;;;8.90;99.90;;;;;;5037430;28;20708;-32
2024/03/04 04:37:42;;;;;;;11.05;6.93;;;8.90;99.90;;;;;;5037284;28;20753;-29
2024/03/04 04:40:09;;;;;;;12.18;6.90;;;8.90;99.90;;;;;;5036678;28;20029;-32
2024/03/04 04:42:39;;;;;;;12.13;6.70;;;8.90;99.90;;;;;;5040867;28;20029;-34
2024/03/04 04:45:08;;;;;;;12.77;6.30;;;8.90;99.90;;;;;;5036832;28;20380;-33
2024/03/04 04:47:33;;;;;;;10.48;6.75;;;8.90;99.90;;;;;;5036034;28;20045;-35
2024/03/04 04:49:59;;;;;;;13.77;7.40;;;8.90;99.90;;;;;;5032277;28;20032;-33
2024/03/04 04:52:24;;;;;;;11.30;7.03;;;8.90;99.90;;;;;;5036206;28;20021;-31
2024/03/04 04:54:50;;;;;;;14.15;7.30;;;8.80;99.90;;;;;;5040452;28;20035;-32
2024/03/04 04:57:18;;;;;;;13.32;7.43;;;8.90;99.90;;;;;;5042891;28;20383;-33
2024/03/04 04:59:43;;;;;;;12.15;7.35;;;8.80;99.90;;;;;;5043165;28;20028;-33
2024/03/04 05:02:09;;;;;;;11.80;7.05;;;8.90;99.90;;;;;;5036672;28;20029;-36
2024/03/04 05:04:34;;;;;;;8.77;5.40;;;8.90;99.90;;;;;;5039359;28;20032;-34
2024/03/04 05:07:00;;;;;;;11.68;6.80;;;8.90;99.90;;;;;;5038350;28;20048;-37
2024/03/04 05:09:26;;;;;;;9.85;5.60;;;8.90;99.90;;;;;;5035018;28;20040;-35
2024/03/04 05:11:51;;;;;;;10.50;6.38;;;8.90;99.90;;;;;;5031297;28;20115;-34
2024/03/04 05:14:18;;;;;;;10.48;6.13;;;8.90;99.90;;;;;;5040659;28;20064;-36
2024/03/04 05:16:43;;;;;;;7.82;5.53;;;8.90;99.90;;;;;;5042114;28;20021;-35
2024/03/04 05:19:09;;;;;;;8.35;5.38;;;8.90;99.90;;;;;;5040744;28;20075;-29
2024/03/04 05:21:35;;;;;;;8.38;5.60;;;8.90;99.90;;;;;;5038405;28;20056;-37
2024/03/04 05:24:01;;;;;;;8.82;6.30;;;8.90;99.90;;;;;;5033271;28;20037;-36
2024/03/04 05:26:27;;;;;;;9.43;5.80;;;8.90;99.90;;;;;;5036124;28;20053;-34
2024/03/04 05:28:52;;;;;;;8.68;5.72;;;8.90;99.90;;;;;;5036156;28;20065;-35
2024/03/04 05:31:18;;;;;;;7.68;5.03;;;8.90;99.90;;;;;;5038980;28;20171;-37
2024/03/04 05:33:46;;;;;;;8.18;5.28;;;8.90;99.90;;;;;;5040219;28;20547;-35
2024/03/04 05:36:14;;;;;;;6.60;4.47;;;8.90;99.90;;;;;;5040162;28;20083;-35
2024/03/04 05:38:39;;;;;;;5.90;3.72;;;9.00;99.90;;;;;;5040253;28;20028;-36
2024/03/04 05:41:05;;;;;;;5.10;3.50;;;9.00;99.90;;;;;;5037890;28;20029;-35
2024/03/04 05:43:31;;;;;;;5.07;3.95;;;9.00;99.90;;;;;;5032521;28;20047;-36
2024/03/04 05:45:57;;;;;;;6.40;4.20;;;9.00;99.90;;;;;;5035899;28;20384;-33
2024/03/04 05:48:22;;;;;;;6.13;4.32;;;9.00;99.90;;;;;;5035175;28;20404;-32
2024/03/04 05:50:48;;;;;;;8.48;4.13;;;9.00;99.90;;;;;;5034821;28;20079;-31
2024/03/04 05:53:15;;;;;;;6.72;3.85;;;9.10;99.90;;;;;;5036218;28;20025;-32
2024/03/04 05:55:41;;;;;;;7.43;3.78;;;9.00;99.90;;;;;;5039779;28;20057;-33
2024/03/04 05:58:07;;;;;;;7.20;4.07;;;9.00;99.90;;;;;;5039914;28;20112;-33
2024/03/04 06:00:33;;;;;;;3.83;3.17;;;9.00;99.90;;;;;;5038359;28;20128;-33
2024/03/04 06:02:59;;;;;;;5.38;3.35;;;9.00;99.90;;;;;;5037475;28;20112;-36
2024/03/04 06:05:24;;;;;;;4.28;3.08;;;9.00;99.90;;;;;;5034558;28;20073;-32
2024/03/04 06:07:51;;;;;;;6.07;3.28;;;9.00;99.90;;;;;;5037946;28;20139;-34
2024/03/04 06:10:17;;;;;;;3.83;3.15;;;8.90;99.90;;;;;;5035522;28;20025;-34
2024/03/04 06:12:42;;;;;;;4.78;2.90;;;8.90;99.90;;;;;;5035001;28;20430;-35
2024/03/04 06:15:08;;;;;;;4.25;2.97;;;8.90;99.90;;;;;;5039504;28;20045;-34
2024/03/04 06:17:34;;;;;;;4.55;2.92;;;8.90;99.90;;;;;;5040314;28;20025;-36
2024/03/04 06:19:59;;;;;;;5.35;3.13;;;8.90;99.90;;;;;;5038499;28;20033;-35
2024/03/04 06:22:25;;;;;;;5.55;2.90;;;8.90;99.90;;;;;;5037795;28;20067;-33
2024/03/04 06:24:51;;;;;;;3.13;2.47;;;8.80;99.90;;;;;;5039316;28;20035;-34
2024/03/04 06:27:16;;;;;;;3.78;2.83;;;8.80;99.90;;;;;;5036816;28;20407;-35
2024/03/04 06:29:42;;;;;;;3.22;2.00;;;8.80;99.90;;;;;;5037310;28;20037;-34
2024/03/04 06:32:08;;;;;;;3.40;2.22;;;8.80;99.90;;;;;;5034927;28;20124;-36
2024/03/04 06:34:33;;;;;;;2.97;2.45;;;8.90;99.90;;;;;;5038510;28;20117;-35
2024/03/04 06:36:59;;;;;;;4.10;2.30;;;8.90;99.90;;;;;;5039587;28;20040;-34
2024/03/04 06:39:25;;;;;;;4.07;2.40;;;8.80;99.90;;;;;;5037347;28;20475;-37
2024/03/04 06:41:54;;;;;;;5.10;2.90;;;8.80;99.90;;;;;;5038498;28;20031;-37
2024/03/04 06:44:19;;;;;;;3.38;2.50;;;8.80;99.90;;;;;;5038188;28;20028;-36
2024/03/04 06:46:52;;;;;;;4.72;2.70;;;8.80;99.90;;;;;;5038620;28;20037;-31
2024/03/04 06:49:18;;;;;;;4.45;2.50;;;8.80;99.90;;;;;;5038550;28;20057;-35
2024/03/04 06:51:44;;;;;;;3.72;2.30;;;8.80;99.90;;;;;;5036169;28;20703;-36
2024/03/04 06:54:10;;;;;;;3.25;1.90;;;8.80;99.90;;;;;;5038849;28;20028;-34
2024/03/04 06:56:36;;;;;;;2.03;1.75;;;8.90;99.90;;;;;;5039374;28;20029;-36
2024/03/04 06:59:02;;;;;;;1.88;1.70;;;8.90;99.90;;;;;;5037935;28;20037;-36
2024/03/04 07:01:28;;;;;;;1.20;1.10;;;8.90;99.90;;;;;;5035924;28;20112;-32
2024/03/04 07:03:54;;;;;;;2.15;1.40;;;9.00;99.90;;;;;;5034095;28;20033;-36
2024/03/04 07:06:24;;;;;;;1.77;1.40;;;9.00;99.90;;;;;;5034367;28;20514;-34
2024/03/04 07:08:50;;;;;;;3.17;1.90;;;9.10;99.90;;;;;;5036378;28;20059;-35
2024/03/04 07:11:16;;;;;;;3.53;2.72;;;9.10;99.90;;;;;;5037565;28;20443;-36
2024/03/04 07:13:42;;;;;;;6.18;3.17;;;9.00;99.90;;;;;;5037454;28;20037;-36
2024/03/04 07:16:08;;;;;;;4.45;3.13;;;9.00;99.90;;;;;;5037574;28;20033;-35
2024/03/04 07:18:34;;;;;;;4.25;2.90;;;8.90;99.90;;;;;;5039498;28;20032;-37
2024/03/04 07:21:01;;;;;;;4.55;3.03;;;8.90;99.90;;;;;;5036977;28;20036;-36
2024/03/04 07:23:26;;;;;;;3.90;2.55;;;8.90;99.90;;;;;;5036552;28;20051;-36
2024/03/04 07:25:52;;;;;;;3.00;2.38;;;8.90;99.90;;;;;;5041286;28;20468;-35
2024/03/04 07:28:20;;;;;;;5.75;2.70;;;8.90;99.90;;;;;;5040500;28;20337;-36
2024/03/04 07:30:46;;;;;;;4.03;2.50;;;8.90;99.90;;;;;;5040874;28;20033;-36
2024/03/04 07:33:13;;;;;;;3.05;2.60;;;8.90;99.90;;;;;;5042888;28;20829;-36
2024/03/04 07:35:39;;;;;;;3.25;2.40;;;8.90;99.90;;;;;;5042844;28;20045;-32
2024/03/04 07:38:05;;;;;;;4.78;2.75;;;9.00;99.90;;;;;;5041296;28;20025;-36
2024/03/04 07:40:31;;;;;;;4.20;2.58;;;9.00;99.90;;;;;;5041048;28;20032;-36
2024/03/04 07:42:57;;;;;;;2.30;2.03;;;9.00;99.90;;;;;;5043821;28;20104;-35
2024/03/04 07:45:25;;;;;;;4.97;2.28;;;9.00;99.90;;;;;;5043746;28;20035;-33
2024/03/04 07:47:51;;;;;;;5.68;3.70;;;9.10;99.90;;;;;;5044171;28;20524;-33
2024/03/04 07:50:17;;;;;;;4.47;3.03;;;9.10;99.90;;;;;;5043015;28;20017;-35
2024/03/04 07:53:02;;;;;;;3.83;3.25;;;9.10;99.90;;;;;;5043778;28;20815;-33
2024/03/04 07:55:28;;;;;;;4.07;3.17;;;9.20;99.90;;;;;;5040907;28;20033;-34
2024/03/04 07:57:58;;;;;;;4.68;3.50;;;9.20;99.90;;;;;;5042937;28;20494;-36
2024/03/04 08:00:23;;;;;;;5.50;3.60;;;9.10;99.90;;;;;;5043051;28;20110;-36
2024/03/04 08:02:49;;;;;;;4.97;2.92;;;9.10;99.90;;;;;;5044218;28;20518;-35
2024/03/04 08:05:15;;;;;;;5.35;3.67;;;9.20;99.90;;;;;;5042141;28;20021;-37
2024/03/04 08:07:40;;;;;;;7.28;3.80;;;9.20;99.90;;;;;;5043767;28;20041;-30
2024/03/04 08:10:08;;;;;;;3.60;3.22;;;9.20;99.90;;;;;;5043892;28;20571;-32
2024/03/04 08:12:40;;;;;;;3.05;2.53;;;9.20;99.90;;;;;;5023634;28;20029;-37
2024/03/04 08:15:06;;;;;;;4.00;2.57;;;9.20;99.90;;;;;;5038867;28;20032;-36
2024/03/04 08:17:32;;;;;;;5.35;3.33;;;9.30;99.90;;;;;;5043404;28;20033;-32
2024/03/04 08:20:03;;;;;;;5.30;3.28;;;9.30;99.90;;;;;;5043214;28;20039;-34
2024/03/04 08:22:28;;;;;;;4.60;2.67;;;9.30;99.90;;;;;;5043442;28;20029;-37
2024/03/04 08:24:54;;;;;;;6.40;3.60;;;9.30;99.90;;;;;;5042706;28;20082;-35
2024/03/04 08:27:20;;;;;;;3.70;2.80;;;9.30;99.90;;;;;;5041297;28;20021;-35
2024/03/04 08:29:46;;;;;;;4.40;2.78;;;9.30;99.90;;;;;;5041646;28;20118;-40
2024/03/04 08:32:12;;;;;;;7.57;3.53;;;9.30;99.90;;;;;;5040925;28;20048;-36
2024/03/04 08:34:37;;;;;;;3.58;3.08;;;9.30;99.90;;;;;;5040801;28;20033;-35
2024/03/04 08:37:03;;;;;;;6.00;3.10;;;9.30;99.90;;;;;;5040399;28;20120;-36
2024/03/04 08:39:29;;;;;;;4.90;2.80;;;9.30;99.90;;;;;;5041810;28;20923;-34
2024/03/04 08:41:55;;;;;;;4.53;2.47;;;9.40;99.90;;;;;;5042294;28;20028;-36
2024/03/04 08:44:20;;;;;;;3.08;2.42;;;9.40;99.90;;;;;;5041408;28;20380;-40
2024/03/04 08:46:46;;;;;;;3.15;1.90;;;9.40;99.90;;;;;;5041644;28;20032;-35
2024/03/04 08:49:13;;;;;;;2.17;1.83;;;9.50;99.90;;;;;;5042310;28;20037;-33
2024/03/04 08:51:39;;;;;;;2.65;2.00;;;9.60;99.90;;;;;;5041896;28;20035;-37
2024/03/04 08:54:05;;;;;;;4.07;1.70;;;9.60;99.90;;;;;;5041532;28;20025;-39
2024/03/04 08:56:30;;;;;;;1.95;1.75;;;9.60;99.90;;;;;;5042120;28;20161;-37
2024/03/04 08:58:58;;;;;;;2.65;1.73;;;9.70;99.90;;;;;;5042567;28;20029;-33
2024/03/04 09:01:25;;;;;;;3.55;2.50;;;9.70;99.90;;;;;;5041199;28;20443;-34
2024/03/04 09:03:53;;;;;;;3.95;2.20;;;9.70;99.90;;;;;;5042550;28;20108;-32
2024/03/04 09:06:20;;;;;;;4.90;2.17;;;9.70;99.90;;;;;;5041551;28;20025;-33
2024/03/04 09:08:46;;;;;;;4.10;2.50;;;9.70;99.90;;;;;;5041912;28;20094;-32
2024/03/04 09:11:12;;;;;;;3.28;1.98;;;9.70;99.90;;;;;;5042238;28;20045;-32
2024/03/04 09:13:39;;;;;;;1.88;1.67;;;9.80;99.90;;;;;;5041449;28;20538;-32
2024/03/04 09:16:05;;;;;;;3.63;2.03;;;9.90;99.90;;;;;;5042527;28;20047;-32
2024/03/04 09:18:35;;;;;;;4.43;2.75;;;10.00;99.90;;;;;;5042034;28;20024;-34
2024/03/04 09:21:01;;;;;;;5.68;2.63;;;10.10;99.90;;;;;;5040353;28;20027;-36
2024/03/04 09:23:27;;;;;;;4.47;2.50;;;10.10;99.90;;;;;;5041822;28;20780;-34
2024/03/04 09:25:54;;;;;;;3.95;1.92;;;10.30;99.90;;;;;;5042749;28;20025;-36
2024/03/04 09:28:20;;;;;;;4.85;1.90;;;10.30;99.90;;;;;;5041042;28;20072;-34
2024/03/04 09:30:46;;;;;;;4.05;1.80;;;10.40;99.90;;;;;;5042377;28;20129;-37
2024/03/04 09:33:11;;;;;;;2.35;1.63;;;10.40;99.90;;;;;;5041214;28;20052;-36
2024/03/04 09:35:37;;;;;;;3.13;1.85;;;10.50;99.90;;;;;;5041061;28;20033;-36
2024/03/04 09:38:06;;;;;;;2.92;1.58;;;10.50;99.90;;;;;;5042009;28;20052;-36
2024/03/04 09:40:34;;;;;;;3.92;1.88;;;10.50;99.90;;;;;;5022533;28;20103;-36
2024/03/04 09:43:00;;;;;;;3.58;2.05;;;10.60;99.90;;;;;;5035833;28;20438;-34
2024/03/04 09:45:27;;;;;;;3.25;2.15;;;10.50;99.90;;;;;;5041367;28;20144;-34
2024/03/04 09:47:57;;;;;;;2.35;1.95;;;10.50;99.90;;;;;;5040555;28;20036;-36
2024/03/04 09:50:26;;;;;;;7.03;2.50;;;10.50;99.90;;;;;;5040497;28;20869;-35
2024/03/04 09:52:58;;;;;;;4.82;1.73;;;10.50;99.90;;;;;;5041372;28;20029;-34
2024/03/04 09:55:23;;;;;;;4.85;2.13;;;10.40;99.90;;;;;;5040675;28;20726;-34
2024/03/04 09:57:50;;;;;;;4.28;1.90;;;10.40;99.90;;;;;;5040576;28;20082;-36
2024/03/04 10:00:17;;;;;;;3.17;1.90;;;10.40;99.90;;;;;;5041004;28;20662;-35
2024/03/04 10:02:43;;;;;;;2.63;1.70;;;10.40;99.90;;;;;;5040860;28;20031;-34
2024/03/04 10:05:09;;;;;;;4.40;1.98;;;10.40;99.90;;;;;;5040503;28;20555;-34
2024/03/04 10:07:36;;;;;;;2.50;1.35;;;10.50;99.90;;;;;;5040320;28;20061;-35
2024/03/04 10:10:03;;;;;;;2.83;1.70;;;10.50;99.90;;;;;;5040548;28;20036;-35
2024/03/04 10:12:29;;;;;;;4.80;2.47;;;10.60;99.90;;;;;;5042439;28;20033;-31
2024/03/04 10:15:03;;;;;;;2.67;2.15;;;10.50;99.90;;;;;;5040627;28;20029;-31
2024/03/04 10:17:29;;;;;;;3.20;1.73;;;10.40;99.90;;;;;;5040105;28;20029;-34
2024/03/04 10:20:03;;;;;;;5.55;1.88;;;10.40;99.90;;;;;;5039748;28;20106;-35
2024/03/04 10:22:36;;;;;;;3.05;1.85;;;10.50;99.90;;;;;;5040710;28;20060;-36
2024/03/04 10:25:06;;;;;;;2.55;1.42;;;10.50;99.90;;;;;;5039989;28;20463;-34
2024/03/04 10:27:33;;;;;;;2.90;1.50;;;10.40;99.90;;;;;;5040731;28;20033;-35
2024/03/04 10:30:22;;;;;;;4.40;1.80;;;10.50;99.90;;;;;;5040254;28;20021;-37
2024/03/04 10:32:55;;;;;;;3.40;1.60;;;10.50;99.90;;;;;;5040573;28;20053;-33
2024/03/04 10:35:25;;;;;;;5.47;1.95;;;10.60;99.90;;;;;;5040364;28;20604;-36
2024/03/04 10:37:52;;;;;;;4.20;1.50;;;10.60;99.90;;;;;;5041007;28;20110;-36
2024/03/04 10:40:21;;;;;;;2.22;1.50;;;10.60;99.90;;;;;;5039508;28;20020;-33
2024/03/04 10:42:49;;;;;;;1.90;1.00;;;10.80;99.90;;;;;;5040320;28;20029;-32
2024/03/04 10:45:15;;;;;;;3.47;1.73;;;10.90;99.90;;;;;;5039907;28;20138;-34
2024/03/04 10:47:42;;;;;;;2.63;1.30;;;11.00;99.90;;;;;;5040500;28;20036;-32
2024/03/04 10:50:12;;;;;;;2.72;1.38;;;11.10;99.90;;;;;;5040561;28;20025;-30
2024/03/04 10:52:43;;;;;;;2.47;1.10;;;11.20;99.90;;;;;;5039980;28;20104;-36
2024/03/04 10:55:11;;;;;;;3.35;1.40;;;11.20;99.90;;;;;;5040154;28;20029;-33
2024/03/04 10:57:43;;;;;;;1.50;1.15;;;11.30;99.90;;;;;;5040278;28;20194;-37
2024/03/04 11:02:59;;;;;;;1.67;1.17;;;11.20;99.90;;;;;;5040318;28;20036;-35
2024/03/04 11:05:31;;;;;;;2.83;1.00;;;11.20;99.90;;;;;;5040010;28;20025;-37
2024/03/04 11:08:04;;;;;;;;;;;11.30;99.90;;;;;;5040284;28;20056;-34
2024/03/04 11:10:41;;;;;;;1.75;0.70;;;11.40;99.90;;;;;;5040593;28;19925;-40
2024/03/04 11:13:18;;;;;;;1.73;0.65;;;11.50;99.90;;;;;;5040082;28;20041;-34
2024/03/04 11:15:57;;;;;;;3.45;0.90;;;11.50;99.90;;;;;;5040335;28;20486;-33
2024/03/04 11:19:02;;;;;;;1.88;0.90;;;11.50;99.90;;;;;;5039842;28;20079;-36
2024/03/04 11:21:28;;;;;;;1.83;1.20;;;11.40;99.90;;;;;;5039118;28;20033;-37
2024/03/04 11:23:54;;;;;;;0.98;0.60;;;11.40;99.90;;;;;;5040692;28;20036;-34
2024/03/04 11:26:22;;;;;;;1.95;0.80;;;11.40;99.90;;;;;;5039859;28;20025;-36
2024/03/04 11:28:50;;;;;;;0.88;0.73;;;11.40;99.90;;;;;;5039136;28;20076;-31
2024/03/04 11:31:29;;;;;;;0.60;0.60;;;11.40;99.90;;;;;;5039755;28;20447;-36
2024/03/04 11:34:05;;;;;;;1.05;0.80;;;11.40;99.90;;;;;;5039915;28;20029;-30
2024/03/04 11:36:32;;;;;;;1.38;0.73;;;11.50;99.90;;;;;;5038714;28;20028;-34
2024/03/04 11:38:59;;;;;;;2.58;1.02;;;11.50;99.90;;;;;;5040091;28;20017;-34
2024/03/04 11:41:44;;;;;;;1.95;0.55;;;11.60;99.90;;;;;;5038747;28;20025;-29
2024/03/04 11:44:11;;;;;;;1.73;0.80;;;11.60;99.90;;;;;;5039815;28;20029;-34
2024/03/04 11:46:41;;;;;;;1.13;0.50;;;11.60;99.90;;;;;;5039373;28;20021;-37
2024/03/04 11:49:44;;;;;;;0.50;0.40;;;11.70;99.90;;;;;;5039515;28;20040;-34
2024/03/04 11:52:14;;;;;;;0.70;0.57;;;11.80;99.90;;;;;;5039993;28;20033;-33
2024/03/04 11:54:48;;;;;;;0.95;0.50;;;11.90;99.90;;;;;;5039540;28;20263;-33
2024/03/04 11:57:16;;;;;;;1.75;0.50;;;12.00;99.90;;;;;;5038959;28;20037;-34
2024/03/04 12:00:13;;;;;;;0.43;0.40;;;12.10;99.90;;;;;;5039663;28;20091;-34
2024/03/04 12:02:39;;;;;;;1.15;0.60;;;12.00;99.90;;;;;;5038546;28;20033;-35
2024/03/04 12:05:05;;;;;;;1.95;0.52;;;12.00;99.90;;;;;;5040102;28;20040;-36
2024/03/04 12:07:32;;;;;;;3.40;0.90;;;11.90;99.90;;;;;;5038722;28;20056;-36
2024/03/04 12:09:59;;;;;;;1.73;0.60;;;11.80;99.90;;;;;;5039210;28;20069;-36
2024/03/04 12:12:25;;;;;;;0.68;0.50;;;11.80;99.90;;;;;;5042362;28;20017;-35
2024/03/04 12:14:51;;;;;;;1.25;0.50;;;11.80;99.90;;;;;;5043415;28;20043;-32
2024/03/04 12:17:17;;;;;;;2.70;0.50;;;11.90;99.90;;;;;;5043238;28;20029;-32
2024/03/04 12:19:53;;;;;;;2.08;0.50;;;12.00;99.90;;;;;;5043267;28;20033;-34
2024/03/04 12:22:24;;;;;;;0.60;0.52;;;12.20;99.90;;;;;;5042942;28;20009;-31
2024/03/04 12:25:00;;;;;;;0.50;0.40;;;12.20;99.90;;;;;;5042315;28;20491;-35
2024/03/04 12:27:25;;;;;;;0.85;0.60;;;12.20;99.90;;;;;;5042699;28;20414;-36
2024/03/04 12:29:53;;;;;;;1.38;0.50;;;12.20;99.90;;;;;;5042982;28;20045;-35
2024/03/04 12:32:19;;;;;;;1.48;0.73;;;12.20;99.90;;;;;;5041952;28;20074;-40
2024/03/04 12:34:45;;;;;;;1.20;0.70;;;12.20;99.90;;;;;;5043363;28;20028;-35
2024/03/04 12:37:23;;;;;;;0.60;0.55;;;12.20;99.90;;;;;;5042915;28;20559;-36
2024/03/04 12:39:48;;;;;;;1.65;0.60;;;12.20;99.90;;;;;;5042966;28;20048;-33
2024/03/04 12:42:14;;;;;;;1.63;0.90;;;12.20;99.90;;;;;;5042816;28;20075;-32
2024/03/04 12:44:40;;;;;;;2.50;1.23;;;12.20;99.90;;;;;;5042126;28;20040;-36
2024/03/04 12:47:05;;;;;;;1.52;0.95;;;12.10;99.90;;;;;;5042895;28;20113;-33
2024/03/04 12:49:31;;;;;;;1.77;1.25;;;12.00;99.90;;;;;;5043124;28;20123;-33
2024/03/04 12:52:01;;;;;;;1.88;1.40;;;11.90;99.90;;;;;;5042643;28;20128;-34